sensor_id;sensor_type;location;lat;lon;timestamp;P1;durP1;ratioP1;P2;durP2;ratioP2
57575;SDS011;43412;-33.800;150.804;2022-09-30T00:01:41;2.17;;;0.40;;
57575;SDS011;43412;-33.800;150.804;2022-09-30T00:04:12;3.78;;;0.50;;
57575;SDS011;43412;-33.800;150.804;2022-09-30T00:06:44;1.17;;;0.50;;
57575;SDS011;43412;-33.800;150.804;2022-09-30T00:09:11;4.55;;;0.75;;
57575;SDS011;43412;-33.800;150.804;2022-09-30T00:11:58;4.55;;;0.57;;
57575;SDS011;43412;-33.800;150.804;2022-09-30T00:14:26;5.60;;;0.90;;
57575;SDS011;43412;-33.800;150.804;2022-09-30T00:17:13;2.65;;;0.77;;
57575;SDS011;43412;-33.800;150.804;2022-09-30T00:19:41;3.60;;;0.40;;
57575;SDS011;43412;-33.800;150.804;2022-09-30T00:22:08;4.35;;;0.50;;
57575;SDS011;43412;-33.800;150.804;2022-09-30T00:24:36;2.78;;;0.70;;
57575;SDS011;43412;-33.800;150.804;2022-09-30T00:27:03;4.03;;;0.88;;
57575;SDS011;43412;-33.800;150.804;2022-09-30T00:29:30;3.47;;;0.77;;
57575;SDS011;43412;-33.800;150.804;2022-09-30T00:31:58;5.25;;;0.73;;
57575;SDS011;43412;-33.800;150.804;2022-09-30T00:34:25;3.75;;;0.50;;
57575;SDS011;43412;-33.800;150.804;2022-09-30T00:36:53;1.88;;;0.80;;
57575;SDS011;43412;-33.800;150.804;2022-09-30T00:39:23;2.15;;;0.60;;
57575;SDS011;43412;-33.800;150.804;2022-09-30T00:41:54;2.88;;;0.77;;
57575;SDS011;43412;-33.800;150.804;2022-09-30T00:49:50;3.25;;;1.05;;
57575;SDS011;43412;-33.800;150.804;2022-09-30T00:52:18;4.90;;;1.35;;
57575;SDS011;43412;-33.800;150.804;2022-09-30T00:54:45;4.68;;;0.77;;
57575;SDS011;43412;-33.800;150.804;2022-09-30T00:57:13;4.07;;;1.02;;
57575;SDS011;43412;-33.800;150.804;2022-09-30T00:59:42;5.25;;;0.80;;
57575;SDS011;43412;-33.800;150.804;2022-09-30T01:02:12;5.68;;;1.17;;
57575;SDS011;43412;-33.800;150.804;2022-09-30T01:04:41;4.43;;;1.25;;
57575;SDS011;43412;-33.800;150.804;2022-09-30T01:07:09;7.20;;;1.08;;
57575;SDS011;43412;-33.800;150.804;2022-09-30T01:09:38;5.13;;;0.90;;
57575;SDS011;43412;-33.800;150.804;2022-09-30T01:12:15;8.18;;;1.73;;
57575;SDS011;43412;-33.800;150.804;2022-09-30T01:14:47;3.13;;;0.60;;
57575;SDS011;43412;-33.800;150.804;2022-09-30T01:23:11;2.53;;;0.60;;
57575;SDS011;43412;-33.800;150.804;2022-09-30T01:28:42;4.88;;;0.85;;
57575;SDS011;43412;-33.800;150.804;2022-09-30T01:31:36;8.52;;;0.80;;
57575;SDS011;43412;-33.800;150.804;2022-09-30T01:37:28;5.90;;;1.05;;
57575;SDS011;43412;-33.800;150.804;2022-09-30T01:40:35;5.80;;;1.00;;
57575;SDS011;43412;-33.800;150.804;2022-09-30T01:51:37;6.85;;;0.98;;
57575;SDS011;43412;-33.800;150.804;2022-09-30T01:54:17;4.93;;;1.08;;
57575;SDS011;43412;-33.800;150.804;2022-09-30T01:56:52;6.10;;;0.68;;
57575;SDS011;43412;-33.800;150.804;2022-09-30T01:59:27;3.33;;;0.75;;
57575;SDS011;43412;-33.800;150.804;2022-09-30T02:04:30;6.28;;;1.30;;
57575;SDS011;43412;-33.800;150.804;2022-09-30T02:07:03;11.80;;;1.08;;
57575;SDS011;43412;-33.800;150.804;2022-09-30T02:09:36;7.07;;;2.13;;
57575;SDS011;43412;-33.800;150.804;2022-09-30T02:12:14;6.45;;;1.17;;
57575;SDS011;43412;-33.800;150.804;2022-09-30T02:14:48;6.00;;;1.08;;
57575;SDS011;43412;-33.800;150.804;2022-09-30T02:17:38;9.93;;;1.25;;
57575;SDS011;43412;-33.800;150.804;2022-09-30T02:20:20;3.58;;;1.02;;
57575;SDS011;43412;-33.800;150.804;2022-09-30T02:22:59;5.53;;;0.63;;
57575;SDS011;43412;-33.800;150.804;2022-09-30T02:25:29;6.65;;;1.15;;
57575;SDS011;43412;-33.800;150.804;2022-09-30T02:28:02;14.93;;;1.27;;
57575;SDS011;43412;-33.800;150.804;2022-09-30T02:30:37;3.80;;;1.23;;
57575;SDS011;43412;-33.800;150.804;2022-09-30T02:33:10;2.63;;;1.05;;
57575;SDS011;43412;-33.800;150.804;2022-09-30T02:35:44;10.25;;;1.23;;
57575;SDS011;43412;-33.800;150.804;2022-09-30T02:38:18;3.13;;;0.90;;
57575;SDS011;43412;-33.800;150.804;2022-09-30T02:40:51;5.17;;;0.73;;
57575;SDS011;43412;-33.800;150.804;2022-09-30T02:43:31;6.22;;;0.88;;
57575;SDS011;43412;-33.800;150.804;2022-09-30T02:54:35;8.50;;;0.93;;
57575;SDS011;43412;-33.800;150.804;2022-09-30T03:00:13;2.15;;;0.60;;
57575;SDS011;43412;-33.800;150.804;2022-09-30T03:02:40;5.55;;;0.70;;
57575;SDS011;43412;-33.800;150.804;2022-09-30T03:05:08;4.82;;;1.52;;
57575;SDS011;43412;-33.800;150.804;2022-09-30T03:07:36;4.53;;;1.63;;
57575;SDS011;43412;-33.800;150.804;2022-09-30T03:10:14;4.15;;;0.80;;
57575;SDS011;43412;-33.800;150.804;2022-09-30T03:15:15;5.05;;;0.75;;
57575;SDS011;43412;-33.800;150.804;2022-09-30T03:28:52;3.45;;;0.73;;
57575;SDS011;43412;-33.800;150.804;2022-09-30T03:37:56;3.95;;;0.90;;
57575;SDS011;43412;-33.800;150.804;2022-09-30T03:40:24;3.05;;;1.02;;
57575;SDS011;43412;-33.800;150.804;2022-09-30T03:42:59;7.13;;;1.40;;
57575;SDS011;43412;-33.800;150.804;2022-09-30T03:48:24;5.85;;;0.68;;
57575;SDS011;43412;-33.800;150.804;2022-09-30T03:50:54;5.55;;;0.93;;
57575;SDS011;43412;-33.800;150.804;2022-09-30T03:53:24;4.93;;;0.73;;
57575;SDS011;43412;-33.800;150.804;2022-09-30T03:55:53;6.22;;;0.98;;
57575;SDS011;43412;-33.800;150.804;2022-09-30T03:58:21;3.28;;;0.65;;
57575;SDS011;43412;-33.800;150.804;2022-09-30T04:00:50;4.28;;;1.17;;
57575;SDS011;43412;-33.800;150.804;2022-09-30T04:03:19;5.85;;;0.77;;
57575;SDS011;43412;-33.800;150.804;2022-09-30T04:05:48;5.75;;;1.25;;
57575;SDS011;43412;-33.800;150.804;2022-09-30T04:08:15;4.20;;;0.80;;
57575;SDS011;43412;-33.800;150.804;2022-09-30T04:10:43;3.80;;;0.68;;
57575;SDS011;43412;-33.800;150.804;2022-09-30T04:13:11;6.70;;;0.70;;
57575;SDS011;43412;-33.800;150.804;2022-09-30T04:15:38;4.35;;;0.50;;
57575;SDS011;43412;-33.800;150.804;2022-09-30T04:18:06;2.28;;;0.63;;
57575;SDS011;43412;-33.800;150.804;2022-09-30T04:20:33;2.72;;;0.60;;
57575;SDS011;43412;-33.800;150.804;2022-09-30T04:23:01;3.22;;;0.63;;
57575;SDS011;43412;-33.800;150.804;2022-09-30T04:25:30;4.82;;;0.70;;
57575;SDS011;43412;-33.800;150.804;2022-09-30T04:27:57;2.90;;;0.57;;
57575;SDS011;43412;-33.800;150.804;2022-09-30T04:30:24;3.22;;;1.05;;
57575;SDS011;43412;-33.800;150.804;2022-09-30T04:32:52;4.68;;;0.90;;
57575;SDS011;43412;-33.800;150.804;2022-09-30T04:35:19;2.25;;;0.70;;
57575;SDS011;43412;-33.800;150.804;2022-09-30T04:37:47;5.20;;;0.73;;
57575;SDS011;43412;-33.800;150.804;2022-09-30T04:40:14;5.63;;;0.90;;
57575;SDS011;43412;-33.800;150.804;2022-09-30T04:42:42;2.28;;;1.00;;
57575;SDS011;43412;-33.800;150.804;2022-09-30T04:45:10;8.35;;;1.75;;
57575;SDS011;43412;-33.800;150.804;2022-09-30T04:47:42;12.02;;;1.85;;
57575;SDS011;43412;-33.800;150.804;2022-09-30T04:50:12;3.72;;;1.00;;
57575;SDS011;43412;-33.800;150.804;2022-09-30T04:52:43;8.75;;;2.03;;
57575;SDS011;43412;-33.800;150.804;2022-09-30T04:55:11;7.78;;;0.88;;
57575;SDS011;43412;-33.800;150.804;2022-09-30T04:57:42;4.97;;;0.82;;
57575;SDS011;43412;-33.800;150.804;2022-09-30T05:00:10;3.03;;;0.40;;
57575;SDS011;43412;-33.800;150.804;2022-09-30T05:02:37;3.45;;;0.65;;
57575;SDS011;43412;-33.800;150.804;2022-09-30T05:05:07;5.03;;;0.40;;
57575;SDS011;43412;-33.800;150.804;2022-09-30T05:07:35;3.53;;;0.40;;
57575;SDS011;43412;-33.800;150.804;2022-09-30T05:10:02;6.25;;;0.80;;
57575;SDS011;43412;-33.800;150.804;2022-09-30T05:12:30;3.25;;;0.45;;
57575;SDS011;43412;-33.800;150.804;2022-09-30T05:14:58;5.20;;;1.58;;
57575;SDS011;43412;-33.800;150.804;2022-09-30T05:17:25;5.45;;;1.05;;
57575;SDS011;43412;-33.800;150.804;2022-09-30T05:19:56;4.05;;;0.65;;
57575;SDS011;43412;-33.800;150.804;2022-09-30T05:22:24;3.00;;;0.60;;
57575;SDS011;43412;-33.800;150.804;2022-09-30T05:24:52;5.60;;;0.40;;
57575;SDS011;43412;-33.800;150.804;2022-09-30T05:27:23;4.32;;;0.80;;
57575;SDS011;43412;-33.800;150.804;2022-09-30T05:29:50;3.05;;;0.57;;
57575;SDS011;43412;-33.800;150.804;2022-09-30T05:32:18;3.50;;;0.75;;
57575;SDS011;43412;-33.800;150.804;2022-09-30T05:34:47;5.03;;;0.50;;
57575;SDS011;43412;-33.800;150.804;2022-09-30T05:37:14;1.77;;;0.80;;
57575;SDS011;43412;-33.800;150.804;2022-09-30T05:39:41;4.28;;;0.52;;
57575;SDS011;43412;-33.800;150.804;2022-09-30T05:42:08;3.85;;;0.60;;
57575;SDS011;43412;-33.800;150.804;2022-09-30T05:44:36;4.68;;;0.75;;
57575;SDS011;43412;-33.800;150.804;2022-09-30T05:47:03;3.00;;;0.60;;
57575;SDS011;43412;-33.800;150.804;2022-09-30T05:49:31;2.67;;;0.45;;
57575;SDS011;43412;-33.800;150.804;2022-09-30T05:51:59;3.40;;;0.32;;
57575;SDS011;43412;-33.800;150.804;2022-09-30T05:54:27;6.25;;;1.27;;
57575;SDS011;43412;-33.800;150.804;2022-09-30T05:56:54;2.60;;;0.65;;
57575;SDS011;43412;-33.800;150.804;2022-09-30T05:59:21;1.88;;;0.35;;
57575;SDS011;43412;-33.800;150.804;2022-09-30T06:01:49;2.40;;;0.57;;
57575;SDS011;43412;-33.800;150.804;2022-09-30T06:04:16;1.60;;;0.47;;
57575;SDS011;43412;-33.800;150.804;2022-09-30T06:06:44;3.63;;;0.40;;
57575;SDS011;43412;-33.800;150.804;2022-09-30T06:09:13;2.80;;;0.40;;
57575;SDS011;43412;-33.800;150.804;2022-09-30T06:11:41;1.63;;;0.20;;
57575;SDS011;43412;-33.800;150.804;2022-09-30T06:14:08;3.20;;;0.32;;
57575;SDS011;43412;-33.800;150.804;2022-09-30T06:16:35;2.80;;;0.30;;
57575;SDS011;43412;-33.800;150.804;2022-09-30T06:19:03;1.38;;;0.30;;
57575;SDS011;43412;-33.800;150.804;2022-09-30T06:21:31;5.13;;;0.30;;
57575;SDS011;43412;-33.800;150.804;2022-09-30T06:23:58;3.30;;;0.47;;
57575;SDS011;43412;-33.800;150.804;2022-09-30T06:26:26;4.60;;;0.30;;
57575;SDS011;43412;-33.800;150.804;2022-09-30T06:28:53;0.90;;;0.30;;
57575;SDS011;43412;-33.800;150.804;2022-09-30T06:31:21;1.23;;;0.20;;
57575;SDS011;43412;-33.800;150.804;2022-09-30T06:33:50;1.20;;;0.25;;
57575;SDS011;43412;-33.800;150.804;2022-09-30T06:36:22;2.65;;;0.40;;
57575;SDS011;43412;-33.800;150.804;2022-09-30T06:38:49;1.05;;;0.30;;
57575;SDS011;43412;-33.800;150.804;2022-09-30T06:41:19;3.38;;;0.38;;
57575;SDS011;43412;-33.800;150.804;2022-09-30T06:43:52;2.42;;;0.45;;
57575;SDS011;43412;-33.800;150.804;2022-09-30T06:46:21;2.80;;;0.60;;
57575;SDS011;43412;-33.800;150.804;2022-09-30T06:48:53;1.58;;;0.60;;
57575;SDS011;43412;-33.800;150.804;2022-09-30T06:51:23;2.33;;;0.30;;
57575;SDS011;43412;-33.800;150.804;2022-09-30T06:53:51;2.08;;;0.40;;
57575;SDS011;43412;-33.800;150.804;2022-09-30T06:56:19;2.17;;;0.20;;
57575;SDS011;43412;-33.800;150.804;2022-09-30T06:58:46;1.90;;;0.28;;
57575;SDS011;43412;-33.800;150.804;2022-09-30T07:01:14;2.35;;;0.32;;
57575;SDS011;43412;-33.800;150.804;2022-09-30T07:03:42;3.25;;;0.82;;
57575;SDS011;43412;-33.800;150.804;2022-09-30T07:06:11;3.15;;;0.50;;
57575;SDS011;43412;-33.800;150.804;2022-09-30T07:08:40;5.22;;;0.30;;
57575;SDS011;43412;-33.800;150.804;2022-09-30T07:11:09;1.17;;;0.40;;
57575;SDS011;43412;-33.800;150.804;2022-09-30T07:13:41;3.92;;;1.23;;
57575;SDS011;43412;-33.800;150.804;2022-09-30T07:16:11;3.00;;;0.60;;
57575;SDS011;43412;-33.800;150.804;2022-09-30T07:18:39;5.25;;;0.90;;
57575;SDS011;43412;-33.800;150.804;2022-09-30T07:21:07;2.33;;;0.68;;
57575;SDS011;43412;-33.800;150.804;2022-09-30T07:23:36;4.07;;;0.43;;
57575;SDS011;43412;-33.800;150.804;2022-09-30T07:26:10;4.07;;;0.77;;
57575;SDS011;43412;-33.800;150.804;2022-09-30T07:28:37;4.32;;;0.88;;
57575;SDS011;43412;-33.800;150.804;2022-09-30T07:31:08;3.22;;;0.60;;
57575;SDS011;43412;-33.800;150.804;2022-09-30T07:33:38;3.80;;;0.85;;
57575;SDS011;43412;-33.800;150.804;2022-09-30T07:36:05;2.70;;;0.52;;
57575;SDS011;43412;-33.800;150.804;2022-09-30T07:38:34;6.18;;;1.20;;
57575;SDS011;43412;-33.800;150.804;2022-09-30T07:41:11;3.75;;;1.30;;
57575;SDS011;43412;-33.800;150.804;2022-09-30T07:43:44;2.53;;;1.23;;
57575;SDS011;43412;-33.800;150.804;2022-09-30T07:46:13;1.85;;;1.00;;
57575;SDS011;43412;-33.800;150.804;2022-09-30T07:48:46;7.30;;;1.55;;
57575;SDS011;43412;-33.800;150.804;2022-09-30T07:51:18;2.05;;;1.88;;
57575;SDS011;43412;-33.800;150.804;2022-09-30T07:53:49;4.63;;;2.03;;
57575;SDS011;43412;-33.800;150.804;2022-09-30T07:56:19;4.65;;;1.15;;
57575;SDS011;43412;-33.800;150.804;2022-09-30T07:58:48;3.05;;;0.80;;
57575;SDS011;43412;-33.800;150.804;2022-09-30T08:01:20;2.83;;;0.70;;
57575;SDS011;43412;-33.800;150.804;2022-09-30T08:03:51;1.83;;;1.00;;
57575;SDS011;43412;-33.800;150.804;2022-09-30T08:06:20;2.70;;;1.23;;
57575;SDS011;43412;-33.800;150.804;2022-09-30T08:08:49;6.65;;;1.55;;
57575;SDS011;43412;-33.800;150.804;2022-09-30T08:11:19;2.65;;;0.60;;
57575;SDS011;43412;-33.800;150.804;2022-09-30T08:13:50;3.42;;;0.88;;
57575;SDS011;43412;-33.800;150.804;2022-09-30T08:16:18;3.92;;;1.90;;
57575;SDS011;43412;-33.800;150.804;2022-09-30T08:18:47;4.82;;;1.27;;
57575;SDS011;43412;-33.800;150.804;2022-09-30T08:21:14;2.60;;;1.10;;
57575;SDS011;43412;-33.800;150.804;2022-09-30T08:23:42;5.47;;;1.80;;
57575;SDS011;43412;-33.800;150.804;2022-09-30T08:26:10;4.00;;;0.70;;
57575;SDS011;43412;-33.800;150.804;2022-09-30T08:28:39;3.08;;;1.40;;
57575;SDS011;43412;-33.800;150.804;2022-09-30T08:31:10;5.25;;;1.88;;
57575;SDS011;43412;-33.800;150.804;2022-09-30T08:33:39;7.43;;;1.98;;
57575;SDS011;43412;-33.800;150.804;2022-09-30T08:36:08;6.07;;;1.08;;
57575;SDS011;43412;-33.800;150.804;2022-09-30T08:38:38;2.58;;;1.20;;
57575;SDS011;43412;-33.800;150.804;2022-09-30T08:49:56;4.03;;;0.80;;
57575;SDS011;43412;-33.800;150.804;2022-09-30T08:52:39;3.92;;;0.80;;
57575;SDS011;43412;-33.800;150.804;2022-09-30T08:55:21;5.93;;;1.60;;
57575;SDS011;43412;-33.800;150.804;2022-09-30T08:57:51;6.70;;;1.35;;
57575;SDS011;43412;-33.800;150.804;2022-09-30T09:00:21;3.47;;;1.00;;
57575;SDS011;43412;-33.800;150.804;2022-09-30T09:02:50;3.47;;;1.20;;
57575;SDS011;43412;-33.800;150.804;2022-09-30T09:05:32;5.47;;;2.03;;
57575;SDS011;43412;-33.800;150.804;2022-09-30T09:11:08;6.63;;;1.75;;
57575;SDS011;43412;-33.800;150.804;2022-09-30T09:16:29;6.75;;;1.23;;
57575;SDS011;43412;-33.800;150.804;2022-09-30T09:19:08;7.30;;;1.88;;
57575;SDS011;43412;-33.800;150.804;2022-09-30T09:24:20;11.52;;;2.35;;
57575;SDS011;43412;-33.800;150.804;2022-09-30T09:26:52;10.93;;;1.83;;
57575;SDS011;43412;-33.800;150.804;2022-09-30T09:31:58;12.93;;;3.28;;
57575;SDS011;43412;-33.800;150.804;2022-09-30T09:34:28;15.50;;;2.00;;
57575;SDS011;43412;-33.800;150.804;2022-09-30T09:40:40;14.52;;;2.55;;
57575;SDS011;43412;-33.800;150.804;2022-09-30T09:48:47;12.68;;;2.67;;
57575;SDS011;43412;-33.800;150.804;2022-09-30T09:51:28;16.88;;;3.42;;
57575;SDS011;43412;-33.800;150.804;2022-09-30T09:54:00;11.18;;;2.83;;
57575;SDS011;43412;-33.800;150.804;2022-09-30T09:56:31;13.88;;;2.05;;
57575;SDS011;43412;-33.800;150.804;2022-09-30T09:59:14;12.07;;;3.38;;
57575;SDS011;43412;-33.800;150.804;2022-09-30T10:04:20;11.40;;;2.35;;
57575;SDS011;43412;-33.800;150.804;2022-09-30T10:06:54;11.85;;;2.80;;
57575;SDS011;43412;-33.800;150.804;2022-09-30T10:17:00;13.93;;;2.05;;
57575;SDS011;43412;-33.800;150.804;2022-09-30T10:19:30;16.60;;;2.35;;
57575;SDS011;43412;-33.800;150.804;2022-09-30T10:24:39;12.55;;;2.78;;
57575;SDS011;43412;-33.800;150.804;2022-09-30T10:27:29;17.58;;;3.38;;
57575;SDS011;43412;-33.800;150.804;2022-09-30T10:29:59;18.83;;;3.15;;
57575;SDS011;43412;-33.800;150.804;2022-09-30T10:32:26;11.23;;;2.85;;
57575;SDS011;43412;-33.800;150.804;2022-09-30T10:35:10;10.65;;;3.13;;
57575;SDS011;43412;-33.800;150.804;2022-09-30T10:37:50;14.13;;;2.17;;
57575;SDS011;43412;-33.800;150.804;2022-09-30T10:40:18;14.48;;;3.22;;
57575;SDS011;43412;-33.800;150.804;2022-09-30T10:42:51;13.55;;;2.58;;
57575;SDS011;43412;-33.800;150.804;2022-09-30T10:45:39;7.28;;;2.42;;
57575;SDS011;43412;-33.800;150.804;2022-09-30T10:48:14;16.05;;;2.20;;
57575;SDS011;43412;-33.800;150.804;2022-09-30T10:50:51;10.82;;;3.03;;
57575;SDS011;43412;-33.800;150.804;2022-09-30T10:53:22;13.73;;;3.83;;
57575;SDS011;43412;-33.800;150.804;2022-09-30T10:55:54;11.50;;;3.05;;
57575;SDS011;43412;-33.800;150.804;2022-09-30T11:06:39;14.05;;;5.28;;
57575;SDS011;43412;-33.800;150.804;2022-09-30T11:09:19;17.15;;;7.70;;
57575;SDS011;43412;-33.800;150.804;2022-09-30T11:12:10;14.68;;;6.95;;
57575;SDS011;43412;-33.800;150.804;2022-09-30T11:15:02;15.77;;;8.35;;
57575;SDS011;43412;-33.800;150.804;2022-09-30T11:22:46;12.18;;;5.45;;
57575;SDS011;43412;-33.800;150.804;2022-09-30T11:33:59;10.68;;;5.22;;
57575;SDS011;43412;-33.800;150.804;2022-09-30T11:36:47;7.65;;;2.67;;
57575;SDS011;43412;-33.800;150.804;2022-09-30T11:42:13;12.93;;;2.60;;
57575;SDS011;43412;-33.800;150.804;2022-09-30T11:44:52;12.48;;;3.22;;
57575;SDS011;43412;-33.800;150.804;2022-09-30T11:47:49;9.70;;;3.15;;
57575;SDS011;43412;-33.800;150.804;2022-09-30T11:50:31;10.95;;;2.22;;
57575;SDS011;43412;-33.800;150.804;2022-09-30T11:58:33;4.18;;;1.60;;
57575;SDS011;43412;-33.800;150.804;2022-09-30T12:03:43;7.20;;;2.05;;
57575;SDS011;43412;-33.800;150.804;2022-09-30T12:09:26;6.82;;;1.73;;
57575;SDS011;43412;-33.800;150.804;2022-09-30T12:12:20;11.07;;;1.80;;
57575;SDS011;43412;-33.800;150.804;2022-09-30T12:14:58;9.02;;;2.70;;
57575;SDS011;43412;-33.800;150.804;2022-09-30T12:17:30;16.80;;;3.22;;
57575;SDS011;43412;-33.800;150.804;2022-09-30T12:20:04;13.45;;;2.83;;
57575;SDS011;43412;-33.800;150.804;2022-09-30T12:22:41;9.45;;;2.20;;
57575;SDS011;43412;-33.800;150.804;2022-09-30T12:25:22;9.75;;;1.77;;
57575;SDS011;43412;-33.800;150.804;2022-09-30T12:31:10;10.55;;;2.45;;
57575;SDS011;43412;-33.800;150.804;2022-09-30T12:37:13;9.52;;;2.08;;
57575;SDS011;43412;-33.800;150.804;2022-09-30T12:40:05;12.98;;;2.45;;
57575;SDS011;43412;-33.800;150.804;2022-09-30T12:43:03;10.40;;;1.58;;
57575;SDS011;43412;-33.800;150.804;2022-09-30T12:48:45;8.52;;;3.75;;
57575;SDS011;43412;-33.800;150.804;2022-09-30T12:51:26;8.52;;;4.53;;
57575;SDS011;43412;-33.800;150.804;2022-09-30T12:53:59;10.90;;;4.97;;
57575;SDS011;43412;-33.800;150.804;2022-09-30T12:56:31;15.18;;;7.10;;
57575;SDS011;43412;-33.800;150.804;2022-09-30T12:59:02;12.32;;;6.18;;
57575;SDS011;43412;-33.800;150.804;2022-09-30T13:01:30;16.50;;;4.63;;
57575;SDS011;43412;-33.800;150.804;2022-09-30T13:09:17;11.90;;;1.92;;
57575;SDS011;43412;-33.800;150.804;2022-09-30T13:17:02;9.35;;;1.63;;
57575;SDS011;43412;-33.800;150.804;2022-09-30T13:19:34;13.85;;;2.63;;
57575;SDS011;43412;-33.800;150.804;2022-09-30T13:45:56;7.45;;;1.45;;
57575;SDS011;43412;-33.800;150.804;2022-09-30T13:48:34;13.00;;;2.45;;
57575;SDS011;43412;-33.800;150.804;2022-09-30T13:51:06;8.65;;;1.63;;
57575;SDS011;43412;-33.800;150.804;2022-09-30T13:53:40;9.73;;;1.63;;
57575;SDS011;43412;-33.800;150.804;2022-09-30T13:56:33;12.98;;;1.30;;
57575;SDS011;43412;-33.800;150.804;2022-09-30T14:04:48;11.77;;;3.10;;
57575;SDS011;43412;-33.800;150.804;2022-09-30T14:07:30;8.63;;;1.35;;
57575;SDS011;43412;-33.800;150.804;2022-09-30T14:32:28;8.23;;;1.13;;
57575;SDS011;43412;-33.800;150.804;2022-09-30T14:35:04;12.15;;;1.90;;
57575;SDS011;43412;-33.800;150.804;2022-09-30T14:37:39;6.10;;;1.52;;
57575;SDS011;43412;-33.800;150.804;2022-09-30T14:40:10;9.90;;;1.95;;
57575;SDS011;43412;-33.800;150.804;2022-09-30T14:42:41;9.77;;;1.35;;
57575;SDS011;43412;-33.800;150.804;2022-09-30T14:45:25;5.03;;;1.23;;
57575;SDS011;43412;-33.800;150.804;2022-09-30T14:47:57;5.82;;;1.38;;
57575;SDS011;43412;-33.800;150.804;2022-09-30T14:53:25;5.05;;;1.30;;
57575;SDS011;43412;-33.800;150.804;2022-09-30T14:55:53;13.60;;;2.40;;
57575;SDS011;43412;-33.800;150.804;2022-09-30T14:58:23;7.50;;;1.70;;
57575;SDS011;43412;-33.800;150.804;2022-09-30T15:01:04;9.75;;;2.47;;
57575;SDS011;43412;-33.800;150.804;2022-09-30T15:03:34;10.02;;;2.05;;
57575;SDS011;43412;-33.800;150.804;2022-09-30T15:06:15;5.72;;;1.50;;
57575;SDS011;43412;-33.800;150.804;2022-09-30T15:08:47;12.65;;;1.95;;
57575;SDS011;43412;-33.800;150.804;2022-09-30T15:11:19;11.90;;;1.80;;
57575;SDS011;43412;-33.800;150.804;2022-09-30T15:13:57;7.43;;;1.25;;
57575;SDS011;43412;-33.800;150.804;2022-09-30T15:16:51;9.85;;;2.10;;
57575;SDS011;43412;-33.800;150.804;2022-09-30T15:21:55;15.50;;;1.70;;
57575;SDS011;43412;-33.800;150.804;2022-09-30T15:24:26;11.60;;;2.47;;
57575;SDS011;43412;-33.800;150.804;2022-09-30T15:26:57;5.70;;;1.17;;
57575;SDS011;43412;-33.800;150.804;2022-09-30T15:29:27;8.75;;;1.88;;
57575;SDS011;43412;-33.800;150.804;2022-09-30T15:34:29;11.45;;;2.38;;
57575;SDS011;43412;-33.800;150.804;2022-09-30T15:36:58;7.63;;;2.25;;
57575;SDS011;43412;-33.800;150.804;2022-09-30T15:39:45;9.07;;;1.88;;
57575;SDS011;43412;-33.800;150.804;2022-09-30T15:42:42;8.95;;;1.98;;
57575;SDS011;43412;-33.800;150.804;2022-09-30T15:48:31;5.05;;;1.25;;
57575;SDS011;43412;-33.800;150.804;2022-09-30T15:50:58;7.80;;;1.13;;
57575;SDS011;43412;-33.800;150.804;2022-09-30T15:56:44;6.35;;;1.65;;
57575;SDS011;43412;-33.800;150.804;2022-09-30T15:59:00;8.00;;;2.13;;
57575;SDS011;43412;-33.800;150.804;2022-09-30T16:01:39;10.45;;;2.33;;
57575;SDS011;43412;-33.800;150.804;2022-09-30T16:17:32;5.35;;;1.38;;
57575;SDS011;43412;-33.800;150.804;2022-09-30T16:27:45;14.68;;;2.33;;
57575;SDS011;43412;-33.800;150.804;2022-09-30T16:30:17;9.82;;;1.73;;
57575;SDS011;43412;-33.800;150.804;2022-09-30T16:32:46;10.05;;;1.63;;
57575;SDS011;43412;-33.800;150.804;2022-09-30T16:35:17;5.13;;;1.88;;
57575;SDS011;43412;-33.800;150.804;2022-09-30T16:37:46;10.63;;;1.63;;
57575;SDS011;43412;-33.800;150.804;2022-09-30T16:40:19;8.30;;;1.52;;
57575;SDS011;43412;-33.800;150.804;2022-09-30T16:42:49;8.80;;;1.77;;
57575;SDS011;43412;-33.800;150.804;2022-09-30T16:45:19;6.88;;;2.35;;
57575;SDS011;43412;-33.800;150.804;2022-09-30T16:47:47;11.80;;;2.90;;
57575;SDS011;43412;-33.800;150.804;2022-09-30T16:50:23;14.18;;;4.20;;
57575;SDS011;43412;-33.800;150.804;2022-09-30T16:52:55;10.05;;;2.80;;
57575;SDS011;43412;-33.800;150.804;2022-09-30T16:55:23;11.15;;;2.67;;
57575;SDS011;43412;-33.800;150.804;2022-09-30T16:57:51;8.60;;;2.00;;
57575;SDS011;43412;-33.800;150.804;2022-09-30T17:00:24;8.18;;;1.95;;
57575;SDS011;43412;-33.800;150.804;2022-09-30T17:02:53;10.80;;;1.85;;
57575;SDS011;43412;-33.800;150.804;2022-09-30T17:05:21;12.90;;;2.20;;
57575;SDS011;43412;-33.800;150.804;2022-09-30T17:07:52;12.02;;;1.95;;
57575;SDS011;43412;-33.800;150.804;2022-09-30T17:10:23;8.23;;;1.20;;
57575;SDS011;43412;-33.800;150.804;2022-09-30T17:12:53;9.43;;;1.30;;
57575;SDS011;43412;-33.800;150.804;2022-09-30T17:15:23;10.23;;;2.10;;
57575;SDS011;43412;-33.800;150.804;2022-09-30T17:17:50;10.75;;;1.33;;
57575;SDS011;43412;-33.800;150.804;2022-09-30T17:20:18;6.45;;;2.22;;
57575;SDS011;43412;-33.800;150.804;2022-09-30T17:22:46;7.82;;;1.27;;
57575;SDS011;43412;-33.800;150.804;2022-09-30T17:25:14;9.38;;;1.10;;
57575;SDS011;43412;-33.800;150.804;2022-09-30T17:27:42;6.43;;;1.77;;
57575;SDS011;43412;-33.800;150.804;2022-09-30T17:30:13;2.95;;;0.88;;
57575;SDS011;43412;-33.800;150.804;2022-09-30T17:32:40;7.95;;;1.10;;
57575;SDS011;43412;-33.800;150.804;2022-09-30T17:35:09;3.42;;;0.88;;
57575;SDS011;43412;-33.800;150.804;2022-09-30T17:37:37;9.95;;;1.83;;
57575;SDS011;43412;-33.800;150.804;2022-09-30T17:40:05;8.75;;;1.63;;
57575;SDS011;43412;-33.800;150.804;2022-09-30T17:42:51;13.07;;;3.25;;
57575;SDS011;43412;-33.800;150.804;2022-09-30T17:45:43;11.25;;;2.45;;
57575;SDS011;43412;-33.800;150.804;2022-09-30T17:48:12;10.90;;;1.75;;
57575;SDS011;43412;-33.800;150.804;2022-09-30T17:50:42;7.82;;;2.25;;
57575;SDS011;43412;-33.800;150.804;2022-09-30T17:53:11;9.60;;;1.48;;
57575;SDS011;43412;-33.800;150.804;2022-09-30T17:55:41;6.78;;;0.88;;
57575;SDS011;43412;-33.800;150.804;2022-09-30T17:58:11;8.90;;;2.05;;
57575;SDS011;43412;-33.800;150.804;2022-09-30T18:00:40;5.60;;;1.77;;
57575;SDS011;43412;-33.800;150.804;2022-09-30T18:03:07;7.32;;;1.25;;
57575;SDS011;43412;-33.800;150.804;2022-09-30T18:05:35;5.60;;;1.05;;
57575;SDS011;43412;-33.800;150.804;2022-09-30T18:08:02;4.80;;;0.77;;
57575;SDS011;43412;-33.800;150.804;2022-09-30T18:10:30;7.80;;;1.02;;
57575;SDS011;43412;-33.800;150.804;2022-09-30T18:13:00;9.30;;;1.00;;
57575;SDS011;43412;-33.800;150.804;2022-09-30T18:15:28;6.50;;;1.05;;
57575;SDS011;43412;-33.800;150.804;2022-09-30T18:17:55;4.07;;;1.00;;
57575;SDS011;43412;-33.800;150.804;2022-09-30T18:20:23;7.03;;;1.15;;
57575;SDS011;43412;-33.800;150.804;2022-09-30T18:22:50;5.85;;;0.82;;
57575;SDS011;43412;-33.800;150.804;2022-09-30T18:25:18;3.80;;;1.02;;
57575;SDS011;43412;-33.800;150.804;2022-09-30T18:27:52;14.05;;;1.38;;
57575;SDS011;43412;-33.800;150.804;2022-09-30T18:30:23;7.05;;;1.10;;
57575;SDS011;43412;-33.800;150.804;2022-09-30T18:32:51;7.50;;;1.10;;
57575;SDS011;43412;-33.800;150.804;2022-09-30T18:35:20;2.38;;;0.75;;
57575;SDS011;43412;-33.800;150.804;2022-09-30T18:37:49;4.82;;;0.80;;
57575;SDS011;43412;-33.800;150.804;2022-09-30T18:40:18;7.57;;;1.08;;
57575;SDS011;43412;-33.800;150.804;2022-09-30T18:42:54;10.02;;;1.08;;